sensor_id;sensor_type;location;lat;lon;timestamp;P1;durP1;ratioP1;P2;durP2;ratioP2
43835;SDS011;39345;43.964;25.340;2022-10-17T00:00:30;21.30;;;11.52;;
43835;SDS011;39345;43.964;25.340;2022-10-17T00:02:57;24.05;;;12.05;;
43835;SDS011;39345;43.964;25.340;2022-10-17T00:05:25;21.30;;;12.25;;
43835;SDS011;39345;43.964;25.340;2022-10-17T00:07:52;24.30;;;12.18;;
43835;SDS011;39345;43.964;25.340;2022-10-17T00:10:20;19.33;;;12.15;;
43835;SDS011;39345;43.964;25.340;2022-10-17T00:12:49;24.58;;;12.65;;
43835;SDS011;39345;43.964;25.340;2022-10-17T00:15:17;19.70;;;12.00;;
43835;SDS011;39345;43.964;25.340;2022-10-17T00:17:45;23.00;;;12.88;;
43835;SDS011;39345;43.964;25.340;2022-10-17T00:20:13;23.23;;;12.70;;
43835;SDS011;39345;43.964;25.340;2022-10-17T00:22:41;23.52;;;12.18;;
43835;SDS011;39345;43.964;25.340;2022-10-17T00:25:09;27.05;;;13.02;;
43835;SDS011;39345;43.964;25.340;2022-10-17T00:27:37;26.45;;;12.45;;
43835;SDS011;39345;43.964;25.340;2022-10-17T00:30:06;22.23;;;12.52;;
43835;SDS011;39345;43.964;25.340;2022-10-17T00:32:34;22.95;;;12.55;;
43835;SDS011;39345;43.964;25.340;2022-10-17T00:35:01;22.38;;;12.80;;
43835;SDS011;39345;43.964;25.340;2022-10-17T00:37:29;20.27;;;12.80;;
43835;SDS011;39345;43.964;25.340;2022-10-17T00:39:57;23.02;;;12.20;;
43835;SDS011;39345;43.964;25.340;2022-10-17T00:42:25;26.95;;;13.57;;
43835;SDS011;39345;43.964;25.340;2022-10-17T00:44:56;23.52;;;12.95;;
43835;SDS011;39345;43.964;25.340;2022-10-17T00:47:24;19.45;;;12.82;;
43835;SDS011;39345;43.964;25.340;2022-10-17T00:49:51;22.27;;;14.20;;
43835;SDS011;39345;43.964;25.340;2022-10-17T00:52:23;23.88;;;13.90;;
43835;SDS011;39345;43.964;25.340;2022-10-17T00:54:55;21.27;;;13.52;;
43835;SDS011;39345;43.964;25.340;2022-10-17T00:57:24;20.20;;;13.48;;
43835;SDS011;39345;43.964;25.340;2022-10-17T00:59:53;19.92;;;14.18;;
43835;SDS011;39345;43.964;25.340;2022-10-17T01:02:22;21.90;;;13.52;;
43835;SDS011;39345;43.964;25.340;2022-10-17T01:04:51;21.85;;;14.40;;
43835;SDS011;39345;43.964;25.340;2022-10-17T01:07:20;21.95;;;14.18;;
43835;SDS011;39345;43.964;25.340;2022-10-17T01:09:48;24.50;;;14.60;;
43835;SDS011;39345;43.964;25.340;2022-10-17T01:12:18;22.50;;;14.95;;
43835;SDS011;39345;43.964;25.340;2022-10-17T01:20:28;21.30;;;15.07;;
43835;SDS011;39345;43.964;25.340;2022-10-17T01:25:56;28.00;;;16.10;;
43835;SDS011;39345;43.964;25.340;2022-10-17T01:31:16;25.92;;;15.98;;
43835;SDS011;39345;43.964;25.340;2022-10-17T01:36:16;28.35;;;17.00;;
43835;SDS011;39345;43.964;25.340;2022-10-17T01:38:52;25.75;;;16.40;;
43835;SDS011;39345;43.964;25.340;2022-10-17T01:43:54;27.08;;;17.65;;
43835;SDS011;39345;43.964;25.340;2022-10-17T01:46:28;26.55;;;17.77;;
43835;SDS011;39345;43.964;25.340;2022-10-17T01:48:56;32.25;;;18.23;;
43835;SDS011;39345;43.964;25.340;2022-10-17T01:51:32;29.25;;;17.88;;
43835;SDS011;39345;43.964;25.340;2022-10-17T01:54:01;28.65;;;17.45;;
43835;SDS011;39345;43.964;25.340;2022-10-17T01:56:30;30.40;;;17.60;;
43835;SDS011;39345;43.964;25.340;2022-10-17T01:59:00;32.75;;;18.30;;
43835;SDS011;39345;43.964;25.340;2022-10-17T02:01:30;29.20;;;17.27;;
43835;SDS011;39345;43.964;25.340;2022-10-17T02:03:58;26.67;;;17.80;;
43835;SDS011;39345;43.964;25.340;2022-10-17T02:06:27;28.80;;;18.23;;
43835;SDS011;39345;43.964;25.340;2022-10-17T02:08:55;27.00;;;18.33;;
43835;SDS011;39345;43.964;25.340;2022-10-17T02:11:23;29.50;;;18.08;;
43835;SDS011;39345;43.964;25.340;2022-10-17T02:14:01;29.25;;;17.48;;
43835;SDS011;39345;43.964;25.340;2022-10-17T02:21:50;26.10;;;17.13;;
43835;SDS011;39345;43.964;25.340;2022-10-17T02:24:25;25.50;;;17.50;;
43835;SDS011;39345;43.964;25.340;2022-10-17T02:29:27;26.10;;;16.63;;
43835;SDS011;39345;43.964;25.340;2022-10-17T02:32:06;24.83;;;17.50;;
43835;SDS011;39345;43.964;25.340;2022-10-17T02:34:36;28.25;;;17.20;;
43835;SDS011;39345;43.964;25.340;2022-10-17T02:37:04;27.40;;;17.60;;
43835;SDS011;39345;43.964;25.340;2022-10-17T02:39:33;27.55;;;17.73;;
43835;SDS011;39345;43.964;25.340;2022-10-17T02:42:02;27.42;;;17.58;;
43835;SDS011;39345;43.964;25.340;2022-10-17T02:44:31;29.10;;;17.30;;
43835;SDS011;39345;43.964;25.340;2022-10-17T02:47:05;30.77;;;18.08;;
43835;SDS011;39345;43.964;25.340;2022-10-17T02:49:35;27.55;;;16.95;;
43835;SDS011;39345;43.964;25.340;2022-10-17T02:52:07;26.48;;;17.40;;
43835;SDS011;39345;43.964;25.340;2022-10-17T02:57:27;26.73;;;17.65;;
43835;SDS011;39345;43.964;25.340;2022-10-17T02:59:57;27.42;;;17.13;;
43835;SDS011;39345;43.964;25.340;2022-10-17T03:02:25;26.60;;;17.75;;
43835;SDS011;39345;43.964;25.340;2022-10-17T03:04:53;27.38;;;17.63;;
43835;SDS011;39345;43.964;25.340;2022-10-17T03:07:22;25.42;;;17.20;;
43835;SDS011;39345;43.964;25.340;2022-10-17T03:09:49;33.60;;;17.65;;
43835;SDS011;39345;43.964;25.340;2022-10-17T03:12:16;26.48;;;17.00;;
43835;SDS011;39345;43.964;25.340;2022-10-17T03:14:44;28.45;;;16.55;;
43835;SDS011;39345;43.964;25.340;2022-10-17T03:17:11;24.98;;;16.58;;
43835;SDS011;39345;43.964;25.340;2022-10-17T03:19:39;27.48;;;16.85;;
43835;SDS011;39345;43.964;25.340;2022-10-17T03:22:07;31.85;;;17.35;;
43835;SDS011;39345;43.964;25.340;2022-10-17T03:24:36;27.38;;;17.30;;
43835;SDS011;39345;43.964;25.340;2022-10-17T03:27:03;30.98;;;17.52;;
43835;SDS011;39345;43.964;25.340;2022-10-17T03:29:30;28.38;;;17.05;;
43835;SDS011;39345;43.964;25.340;2022-10-17T03:31:58;28.25;;;17.92;;
43835;SDS011;39345;43.964;25.340;2022-10-17T03:34:26;28.05;;;17.77;;
43835;SDS011;39345;43.964;25.340;2022-10-17T03:36:54;27.85;;;17.60;;
43835;SDS011;39345;43.964;25.340;2022-10-17T03:39:22;28.90;;;17.77;;
43835;SDS011;39345;43.964;25.340;2022-10-17T03:41:50;28.25;;;17.33;;
43835;SDS011;39345;43.964;25.340;2022-10-17T03:44:18;28.05;;;17.20;;
43835;SDS011;39345;43.964;25.340;2022-10-17T03:46:47;28.95;;;17.30;;
43835;SDS011;39345;43.964;25.340;2022-10-17T03:49:14;28.65;;;17.67;;
43835;SDS011;39345;43.964;25.340;2022-10-17T03:51:42;34.65;;;16.75;;
43835;SDS011;39345;43.964;25.340;2022-10-17T03:54:13;33.80;;;17.38;;
43835;SDS011;39345;43.964;25.340;2022-10-17T03:56:40;27.10;;;17.30;;
43835;SDS011;39345;43.964;25.340;2022-10-17T03:59:12;28.70;;;17.08;;
43835;SDS011;39345;43.964;25.340;2022-10-17T04:01:43;24.98;;;17.02;;
43835;SDS011;39345;43.964;25.340;2022-10-17T04:04:11;24.58;;;16.55;;
43835;SDS011;39345;43.964;25.340;2022-10-17T04:06:39;27.63;;;16.95;;
43835;SDS011;39345;43.964;25.340;2022-10-17T04:09:07;28.33;;;17.17;;
43835;SDS011;39345;43.964;25.340;2022-10-17T04:11:48;32.35;;;16.98;;
43835;SDS011;39345;43.964;25.340;2022-10-17T04:14:15;29.13;;;16.90;;
43835;SDS011;39345;43.964;25.340;2022-10-17T04:16:43;26.27;;;17.05;;
43835;SDS011;39345;43.964;25.340;2022-10-17T04:19:15;28.92;;;17.02;;
43835;SDS011;39345;43.964;25.340;2022-10-17T04:21:45;26.80;;;16.83;;
43835;SDS011;39345;43.964;25.340;2022-10-17T04:24:13;24.02;;;17.23;;
43835;SDS011;39345;43.964;25.340;2022-10-17T04:26:49;28.00;;;17.33;;
43835;SDS011;39345;43.964;25.340;2022-10-17T04:29:17;26.30;;;17.33;;
43835;SDS011;39345;43.964;25.340;2022-10-17T04:31:48;31.08;;;17.85;;
43835;SDS011;39345;43.964;25.340;2022-10-17T04:34:22;32.90;;;17.70;;
43835;SDS011;39345;43.964;25.340;2022-10-17T04:36:50;31.25;;;18.02;;
43835;SDS011;39345;43.964;25.340;2022-10-17T04:39:18;26.45;;;16.60;;
43835;SDS011;39345;43.964;25.340;2022-10-17T04:41:46;31.63;;;17.17;;
43835;SDS011;39345;43.964;25.340;2022-10-17T04:44:14;32.85;;;17.63;;
43835;SDS011;39345;43.964;25.340;2022-10-17T04:46:47;26.88;;;17.17;;
43835;SDS011;39345;43.964;25.340;2022-10-17T04:49:15;26.52;;;16.95;;
43835;SDS011;39345;43.964;25.340;2022-10-17T04:51:46;28.45;;;16.33;;
43835;SDS011;39345;43.964;25.340;2022-10-17T04:54:27;26.42;;;16.95;;
43835;SDS011;39345;43.964;25.340;2022-10-17T04:57:02;28.58;;;16.85;;
43835;SDS011;39345;43.964;25.340;2022-10-17T04:59:30;26.80;;;17.02;;
43835;SDS011;39345;43.964;25.340;2022-10-17T05:02:20;31.17;;;17.30;;
43835;SDS011;39345;43.964;25.340;2022-10-17T05:04:49;31.63;;;17.10;;
43835;SDS011;39345;43.964;25.340;2022-10-17T05:07:17;29.85;;;16.48;;
43835;SDS011;39345;43.964;25.340;2022-10-17T05:10:09;35.45;;;18.25;;
43835;SDS011;39345;43.964;25.340;2022-10-17T05:12:39;37.00;;;19.00;;
43835;SDS011;39345;43.964;25.340;2022-10-17T05:15:07;32.63;;;17.55;;
43835;SDS011;39345;43.964;25.340;2022-10-17T05:17:34;26.30;;;18.13;;
43835;SDS011;39345;43.964;25.340;2022-10-17T05:20:02;27.92;;;16.20;;
43835;SDS011;39345;43.964;25.340;2022-10-17T05:22:31;27.27;;;16.77;;
43835;SDS011;39345;43.964;25.340;2022-10-17T05:25:05;35.70;;;17.73;;
43835;SDS011;39345;43.964;25.340;2022-10-17T05:27:32;28.85;;;17.63;;
43835;SDS011;39345;43.964;25.340;2022-10-17T05:30:00;38.17;;;18.17;;
43835;SDS011;39345;43.964;25.340;2022-10-17T05:32:32;29.83;;;17.13;;
43835;SDS011;39345;43.964;25.340;2022-10-17T05:34:59;30.33;;;17.38;;
43835;SDS011;39345;43.964;25.340;2022-10-17T05:37:30;27.15;;;17.00;;
43835;SDS011;39345;43.964;25.340;2022-10-17T05:39:59;28.25;;;18.27;;
43835;SDS011;39345;43.964;25.340;2022-10-17T05:42:28;30.85;;;17.80;;
43835;SDS011;39345;43.964;25.340;2022-10-17T05:44:56;28.45;;;17.05;;
43835;SDS011;39345;43.964;25.340;2022-10-17T05:47:25;33.97;;;17.75;;
43835;SDS011;39345;43.964;25.340;2022-10-17T05:49:53;27.67;;;17.90;;
43835;SDS011;39345;43.964;25.340;2022-10-17T05:52:30;30.33;;;18.50;;
43835;SDS011;39345;43.964;25.340;2022-10-17T05:55:10;35.03;;;19.40;;
43835;SDS011;39345;43.964;25.340;2022-10-17T05:57:38;27.80;;;17.17;;
43835;SDS011;39345;43.964;25.340;2022-10-17T06:00:10;33.55;;;18.70;;
43835;SDS011;39345;43.964;25.340;2022-10-17T06:02:43;26.02;;;16.92;;
43835;SDS011;39345;43.964;25.340;2022-10-17T06:05:13;26.30;;;17.48;;
43835;SDS011;39345;43.964;25.340;2022-10-17T06:07:42;27.90;;;16.90;;
43835;SDS011;39345;43.964;25.340;2022-10-17T06:10:11;26.02;;;16.70;;
43835;SDS011;39345;43.964;25.340;2022-10-17T06:12:44;23.23;;;15.60;;
43835;SDS011;39345;43.964;25.340;2022-10-17T06:15:13;27.38;;;15.88;;
43835;SDS011;39345;43.964;25.340;2022-10-17T06:17:45;23.75;;;15.80;;
43835;SDS011;39345;43.964;25.340;2022-10-17T06:20:12;23.27;;;15.77;;
43835;SDS011;39345;43.964;25.340;2022-10-17T06:22:40;25.52;;;16.17;;
43835;SDS011;39345;43.964;25.340;2022-10-17T06:25:14;24.08;;;16.10;;
43835;SDS011;39345;43.964;25.340;2022-10-17T06:27:41;23.67;;;14.75;;
43835;SDS011;39345;43.964;25.340;2022-10-17T06:30:10;20.20;;;14.30;;
43835;SDS011;39345;43.964;25.340;2022-10-17T06:32:37;21.02;;;15.13;;
43835;SDS011;39345;43.964;25.340;2022-10-17T06:35:05;19.95;;;15.73;;
43835;SDS011;39345;43.964;25.340;2022-10-17T06:37:34;19.63;;;14.95;;
43835;SDS011;39345;43.964;25.340;2022-10-17T06:40:06;17.80;;;14.15;;
43835;SDS011;39345;43.964;25.340;2022-10-17T06:42:37;20.55;;;13.88;;
43835;SDS011;39345;43.964;25.340;2022-10-17T06:45:44;16.52;;;13.48;;
43835;SDS011;39345;43.964;25.340;2022-10-17T06:48:24;19.50;;;13.75;;
43835;SDS011;39345;43.964;25.340;2022-10-17T06:51:07;21.35;;;14.00;;
43835;SDS011;39345;43.964;25.340;2022-10-17T06:53:46;18.35;;;13.13;;
43835;SDS011;39345;43.964;25.340;2022-10-17T06:56:46;20.15;;;14.02;;
43835;SDS011;39345;43.964;25.340;2022-10-17T06:59:48;26.27;;;15.07;;
43835;SDS011;39345;43.964;25.340;2022-10-17T07:02:21;20.98;;;14.15;;
43835;SDS011;39345;43.964;25.340;2022-10-17T07:04:51;20.33;;;14.02;;
43835;SDS011;39345;43.964;25.340;2022-10-17T07:07:18;20.25;;;13.95;;
43835;SDS011;39345;43.964;25.340;2022-10-17T07:09:46;22.63;;;14.38;;
43835;SDS011;39345;43.964;25.340;2022-10-17T07:12:15;24.92;;;14.27;;
43835;SDS011;39345;43.964;25.340;2022-10-17T07:14:43;21.20;;;13.23;;
43835;SDS011;39345;43.964;25.340;2022-10-17T07:17:15;26.58;;;13.50;;
43835;SDS011;39345;43.964;25.340;2022-10-17T07:19:44;26.02;;;14.60;;
43835;SDS011;39345;43.964;25.340;2022-10-17T07:22:12;23.60;;;14.27;;
43835;SDS011;39345;43.964;25.340;2022-10-17T07:24:43;29.30;;;15.23;;
43835;SDS011;39345;43.964;25.340;2022-10-17T07:27:18;22.75;;;13.63;;
43835;SDS011;39345;43.964;25.340;2022-10-17T07:29:46;27.05;;;13.70;;
43835;SDS011;39345;43.964;25.340;2022-10-17T07:32:19;31.13;;;16.35;;
43835;SDS011;39345;43.964;25.340;2022-10-17T07:34:47;28.23;;;14.68;;
43835;SDS011;39345;43.964;25.340;2022-10-17T07:37:14;31.10;;;13.35;;
43835;SDS011;39345;43.964;25.340;2022-10-17T07:39:48;18.00;;;11.43;;
43835;SDS011;39345;43.964;25.340;2022-10-17T07:42:15;19.15;;;11.82;;
43835;SDS011;39345;43.964;25.340;2022-10-17T07:44:43;19.23;;;12.40;;
43835;SDS011;39345;43.964;25.340;2022-10-17T07:47:16;18.17;;;11.10;;
43835;SDS011;39345;43.964;25.340;2022-10-17T07:49:46;22.15;;;10.88;;
43835;SDS011;39345;43.964;25.340;2022-10-17T07:52:14;18.52;;;11.30;;
43835;SDS011;39345;43.964;25.340;2022-10-17T07:54:42;16.95;;;10.57;;
43835;SDS011;39345;43.964;25.340;2022-10-17T07:57:09;18.17;;;10.07;;
43835;SDS011;39345;43.964;25.340;2022-10-17T07:59:37;21.65;;;11.63;;
43835;SDS011;39345;43.964;25.340;2022-10-17T08:02:04;27.75;;;13.88;;
43835;SDS011;39345;43.964;25.340;2022-10-17T08:04:33;21.67;;;12.15;;
43835;SDS011;39345;43.964;25.340;2022-10-17T08:07:01;22.73;;;11.52;;
43835;SDS011;39345;43.964;25.340;2022-10-17T08:09:46;14.38;;;10.27;;
43835;SDS011;39345;43.964;25.340;2022-10-17T08:12:13;18.42;;;11.73;;
43835;SDS011;39345;43.964;25.340;2022-10-17T08:14:41;17.52;;;11.20;;
43835;SDS011;39345;43.964;25.340;2022-10-17T08:17:09;20.23;;;11.10;;
43835;SDS011;39345;43.964;25.340;2022-10-17T08:19:37;17.10;;;10.25;;
43835;SDS011;39345;43.964;25.340;2022-10-17T08:22:05;21.77;;;10.85;;
43835;SDS011;39345;43.964;25.340;2022-10-17T08:24:33;21.20;;;10.07;;
43835;SDS011;39345;43.964;25.340;2022-10-17T08:27:00;18.42;;;10.55;;
43835;SDS011;39345;43.964;25.340;2022-10-17T08:29:29;16.67;;;9.65;;
43835;SDS011;39345;43.964;25.340;2022-10-17T08:31:58;33.28;;;18.33;;
43835;SDS011;39345;43.964;25.340;2022-10-17T08:34:28;18.95;;;10.68;;
43835;SDS011;39345;43.964;25.340;2022-10-17T08:36:55;17.38;;;11.30;;
43835;SDS011;39345;43.964;25.340;2022-10-17T08:39:23;22.35;;;12.02;;
43835;SDS011;39345;43.964;25.340;2022-10-17T08:47:01;22.13;;;10.50;;
43835;SDS011;39345;43.964;25.340;2022-10-17T08:49:36;14.57;;;8.07;;
43835;SDS011;39345;43.964;25.340;2022-10-17T08:52:49;11.75;;;6.60;;
43835;SDS011;39345;43.964;25.340;2022-10-17T08:54:56;11.30;;;6.70;;
43835;SDS011;39345;43.964;25.340;2022-10-17T08:57:24;17.08;;;8.82;;
43835;SDS011;39345;43.964;25.340;2022-10-17T08:59:54;10.68;;;7.10;;
43835;SDS011;39345;43.964;25.340;2022-10-17T09:05:23;11.48;;;7.18;;
43835;SDS011;39345;43.964;25.340;2022-10-17T09:07:55;15.95;;;6.38;;
43835;SDS011;39345;43.964;25.340;2022-10-17T09:10:29;13.27;;;5.97;;
43835;SDS011;39345;43.964;25.340;2022-10-17T09:15:46;13.77;;;5.97;;
43835;SDS011;39345;43.964;25.340;2022-10-17T09:18:30;11.98;;;5.20;;
43835;SDS011;39345;43.964;25.340;2022-10-17T09:21:20;13.70;;;5.97;;
43835;SDS011;39345;43.964;25.340;2022-10-17T09:23:56;10.88;;;5.15;;
43835;SDS011;39345;43.964;25.340;2022-10-17T09:26:35;11.00;;;5.50;;
43835;SDS011;39345;43.964;25.340;2022-10-17T09:29:04;6.75;;;4.30;;
43835;SDS011;39345;43.964;25.340;2022-10-17T09:31:44;11.85;;;4.72;;
43835;SDS011;39345;43.964;25.340;2022-10-17T09:34:13;8.57;;;4.50;;
43835;SDS011;39345;43.964;25.340;2022-10-17T09:36:42;9.45;;;4.68;;
43835;SDS011;39345;43.964;25.340;2022-10-17T09:41:43;10.27;;;4.35;;
43835;SDS011;39345;43.964;25.340;2022-10-17T09:46:40;8.55;;;4.72;;
43835;SDS011;39345;43.964;25.340;2022-10-17T09:49:11;8.77;;;4.25;;
43835;SDS011;39345;43.964;25.340;2022-10-17T09:51:42;7.57;;;4.47;;
43835;SDS011;39345;43.964;25.340;2022-10-17T09:54:19;7.35;;;4.22;;
43835;SDS011;39345;43.964;25.340;2022-10-17T09:57:00;6.68;;;4.25;;
43835;SDS011;39345;43.964;25.340;2022-10-17T10:07:32;8.10;;;3.83;;
43835;SDS011;39345;43.964;25.340;2022-10-17T10:10:00;8.65;;;4.18;;
43835;SDS011;39345;43.964;25.340;2022-10-17T10:12:30;7.80;;;4.47;;
43835;SDS011;39345;43.964;25.340;2022-10-17T10:14:58;14.63;;;4.93;;
43835;SDS011;39345;43.964;25.340;2022-10-17T10:17:39;7.75;;;4.78;;
43835;SDS011;39345;43.964;25.340;2022-10-17T10:23:12;6.55;;;3.63;;
43835;SDS011;39345;43.964;25.340;2022-10-17T10:28:37;8.15;;;4.78;;
43835;SDS011;39345;43.964;25.340;2022-10-17T10:31:07;10.38;;;5.55;;
43835;SDS011;39345;43.964;25.340;2022-10-17T10:33:39;6.93;;;3.95;;
43835;SDS011;39345;43.964;25.340;2022-10-17T10:36:07;6.03;;;3.70;;
43835;SDS011;39345;43.964;25.340;2022-10-17T10:38:34;9.63;;;4.20;;
43835;SDS011;39345;43.964;25.340;2022-10-17T10:41:06;8.73;;;4.72;;
43835;SDS011;39345;43.964;25.340;2022-10-17T10:43:34;10.73;;;4.85;;
43835;SDS011;39345;43.964;25.340;2022-10-17T10:46:04;9.35;;;4.90;;
43835;SDS011;39345;43.964;25.340;2022-10-17T10:48:35;10.95;;;4.55;;
43835;SDS011;39345;43.964;25.340;2022-10-17T10:51:13;9.85;;;4.30;;
43835;SDS011;39345;43.964;25.340;2022-10-17T10:56:16;10.63;;;4.78;;
43835;SDS011;39345;43.964;25.340;2022-10-17T11:01:18;8.35;;;4.80;;
43835;SDS011;39345;43.964;25.340;2022-10-17T11:04:07;8.18;;;4.28;;
43835;SDS011;39345;43.964;25.340;2022-10-17T11:06:40;8.35;;;4.50;;
43835;SDS011;39345;43.964;25.340;2022-10-17T11:12:08;10.32;;;4.57;;
43835;SDS011;39345;43.964;25.340;2022-10-17T11:17:07;9.45;;;4.60;;
43835;SDS011;39345;43.964;25.340;2022-10-17T11:19:41;8.27;;;4.40;;
43835;SDS011;39345;43.964;25.340;2022-10-17T11:22:14;9.57;;;5.15;;
43835;SDS011;39345;43.964;25.340;2022-10-17T11:24:44;9.75;;;5.13;;
43835;SDS011;39345;43.964;25.340;2022-10-17T11:27:14;11.68;;;4.30;;
43835;SDS011;39345;43.964;25.340;2022-10-17T11:29:42;10.48;;;6.38;;
43835;SDS011;39345;43.964;25.340;2022-10-17T11:32:16;8.05;;;5.20;;
43835;SDS011;39345;43.964;25.340;2022-10-17T11:34:47;12.25;;;7.45;;
43835;SDS011;39345;43.964;25.340;2022-10-17T11:37:23;8.63;;;4.30;;
43835;SDS011;39345;43.964;25.340;2022-10-17T11:39:53;8.45;;;4.63;;
43835;SDS011;39345;43.964;25.340;2022-10-17T11:42:24;9.75;;;5.00;;
43835;SDS011;39345;43.964;25.340;2022-10-17T11:44:55;9.23;;;4.60;;
43835;SDS011;39345;43.964;25.340;2022-10-17T11:49:52;8.18;;;4.35;;
43835;SDS011;39345;43.964;25.340;2022-10-17T11:52:41;8.02;;;4.13;;
43835;SDS011;39345;43.964;25.340;2022-10-17T11:55:26;8.10;;;4.22;;
43835;SDS011;39345;43.964;25.340;2022-10-17T12:00:28;9.60;;;4.57;;
43835;SDS011;39345;43.964;25.340;2022-10-17T12:03:06;7.50;;;4.28;;
43835;SDS011;39345;43.964;25.340;2022-10-17T12:11:04;12.90;;;5.82;;
43835;SDS011;39345;43.964;25.340;2022-10-17T12:18:51;9.38;;;5.30;;
43835;SDS011;39345;43.964;25.340;2022-10-17T12:21:19;10.93;;;4.55;;
43835;SDS011;39345;43.964;25.340;2022-10-17T12:23:52;7.55;;;3.95;;
43835;SDS011;39345;43.964;25.340;2022-10-17T12:26:27;8.95;;;4.57;;
43835;SDS011;39345;43.964;25.340;2022-10-17T12:28:55;7.00;;;3.88;;
43835;SDS011;39345;43.964;25.340;2022-10-17T12:31:23;7.75;;;4.03;;
43835;SDS011;39345;43.964;25.340;2022-10-17T12:33:59;13.05;;;4.47;;
43835;SDS011;39345;43.964;25.340;2022-10-17T12:54:37;11.15;;;4.30;;
43835;SDS011;39345;43.964;25.340;2022-10-17T12:57:20;8.05;;;4.53;;
43835;SDS011;39345;43.964;25.340;2022-10-17T12:59:49;6.13;;;3.75;;
43835;SDS011;39345;43.964;25.340;2022-10-17T13:02:20;11.98;;;4.70;;
43835;SDS011;39345;43.964;25.340;2022-10-17T13:04:48;9.40;;;4.07;;
43835;SDS011;39345;43.964;25.340;2022-10-17T13:07:18;10.38;;;4.38;;
43835;SDS011;39345;43.964;25.340;2022-10-17T13:09:46;19.35;;;9.93;;
43835;SDS011;39345;43.964;25.340;2022-10-17T13:12:17;14.18;;;5.55;;
43835;SDS011;39345;43.964;25.340;2022-10-17T13:14:46;8.38;;;5.18;;
43835;SDS011;39345;43.964;25.340;2022-10-17T13:17:24;9.25;;;4.63;;
43835;SDS011;39345;43.964;25.340;2022-10-17T13:19:53;7.68;;;4.50;;
43835;SDS011;39345;43.964;25.340;2022-10-17T13:22:22;8.85;;;4.10;;
43835;SDS011;39345;43.964;25.340;2022-10-17T13:24:50;11.73;;;4.72;;
43835;SDS011;39345;43.964;25.340;2022-10-17T13:27:28;10.23;;;4.55;;
43835;SDS011;39345;43.964;25.340;2022-10-17T13:29:56;11.13;;;5.07;;
43835;SDS011;39345;43.964;25.340;2022-10-17T13:32:24;5.68;;;3.97;;
43835;SDS011;39345;43.964;25.340;2022-10-17T13:35:09;9.55;;;4.22;;
43835;SDS011;39345;43.964;25.340;2022-10-17T13:37:38;14.93;;;4.88;;
43835;SDS011;39345;43.964;25.340;2022-10-17T13:40:05;16.15;;;6.57;;
43835;SDS011;39345;43.964;25.340;2022-10-17T13:42:54;16.25;;;8.88;;
43835;SDS011;39345;43.964;25.340;2022-10-17T13:47:57;10.60;;;6.28;;
43835;SDS011;39345;43.964;25.340;2022-10-17T13:55:57;7.78;;;5.10;;
43835;SDS011;39345;43.964;25.340;2022-10-17T13:58:46;8.73;;;3.80;;
43835;SDS011;39345;43.964;25.340;2022-10-17T14:01:14;6.30;;;3.95;;
43835;SDS011;39345;43.964;25.340;2022-10-17T14:03:42;8.07;;;4.60;;
43835;SDS011;39345;43.964;25.340;2022-10-17T14:06:24;12.98;;;5.35;;
43835;SDS011;39345;43.964;25.340;2022-10-17T14:09:16;7.97;;;4.70;;
43835;SDS011;39345;43.964;25.340;2022-10-17T14:11:44;13.43;;;5.88;;
43835;SDS011;39345;43.964;25.340;2022-10-17T14:14:22;12.43;;;4.75;;
43835;SDS011;39345;43.964;25.340;2022-10-17T14:16:51;12.25;;;5.57;;
43835;SDS011;39345;43.964;25.340;2022-10-17T14:21:52;8.50;;;4.40;;
43835;SDS011;39345;43.964;25.340;2022-10-17T14:26:57;13.70;;;6.07;;
43835;SDS011;39345;43.964;25.340;2022-10-17T14:31:59;10.07;;;5.40;;
43835;SDS011;39345;43.964;25.340;2022-10-17T14:34:29;6.95;;;4.35;;
43835;SDS011;39345;43.964;25.340;2022-10-17T14:36:57;6.53;;;4.40;;
43835;SDS011;39345;43.964;25.340;2022-10-17T14:39:25;7.32;;;4.97;;
43835;SDS011;39345;43.964;25.340;2022-10-17T14:41:53;6.53;;;4.60;;
43835;SDS011;39345;43.964;25.340;2022-10-17T14:44:25;19.90;;;7.95;;
43835;SDS011;39345;43.964;25.340;2022-10-17T14:46:55;11.95;;;4.93;;
43835;SDS011;39345;43.964;25.340;2022-10-17T14:49:26;34.58;;;24.50;;
43835;SDS011;39345;43.964;25.340;2022-10-17T14:54:44;16.65;;;9.30;;
43835;SDS011;39345;43.964;25.340;2022-10-17T14:57:16;31.27;;;22.83;;
43835;SDS011;39345;43.964;25.340;2022-10-17T14:59:44;26.20;;;16.13;;
43835;SDS011;39345;43.964;25.340;2022-10-17T15:02:24;17.55;;;8.52;;
43835;SDS011;39345;43.964;25.340;2022-10-17T15:04:52;14.82;;;7.57;;
43835;SDS011;39345;43.964;25.340;2022-10-17T15:07:20;11.95;;;8.57;;
43835;SDS011;39345;43.964;25.340;2022-10-17T15:09:49;16.40;;;7.22;;
43835;SDS011;39345;43.964;25.340;2022-10-17T15:12:18;20.27;;;10.45;;
43835;SDS011;39345;43.964;25.340;2022-10-17T15:14:46;22.70;;;12.60;;
43835;SDS011;39345;43.964;25.340;2022-10-17T15:17:32;27.63;;;15.15;;
43835;SDS011;39345;43.964;25.340;2022-10-17T15:20:00;35.65;;;22.80;;
43835;SDS011;39345;43.964;25.340;2022-10-17T15:22:28;15.77;;;8.15;;
43835;SDS011;39345;43.964;25.340;2022-10-17T15:24:57;13.95;;;7.38;;
43835;SDS011;39345;43.964;25.340;2022-10-17T15:27:24;28.95;;;18.20;;
43835;SDS011;39345;43.964;25.340;2022-10-17T15:29:53;31.90;;;17.85;;
43835;SDS011;39345;43.964;25.340;2022-10-17T15:32:20;26.33;;;14.13;;
43835;SDS011;39345;43.964;25.340;2022-10-17T15:34:48;28.65;;;16.13;;
43835;SDS011;39345;43.964;25.340;2022-10-17T15:37:17;25.80;;;16.42;;
43835;SDS011;39345;43.964;25.340;2022-10-17T15:39:49;22.35;;;8.57;;
43835;SDS011;39345;43.964;25.340;2022-10-17T15:42:21;19.52;;;9.27;;
43835;SDS011;39345;43.964;25.340;2022-10-17T15:44:49;23.67;;;9.07;;
43835;SDS011;39345;43.964;25.340;2022-10-17T15:47:26;21.80;;;9.05;;
43835;SDS011;39345;43.964;25.340;2022-10-17T15:49:56;23.50;;;8.95;;
43835;SDS011;39345;43.964;25.340;2022-10-17T15:52:24;21.58;;;8.55;;
43835;SDS011;39345;43.964;25.340;2022-10-17T15:54:52;22.17;;;9.60;;
43835;SDS011;39345;43.964;25.340;2022-10-17T15:57:25;15.80;;;9.30;;
43835;SDS011;39345;43.964;25.340;2022-10-17T15:59:53;25.35;;;10.07;;
43835;SDS011;39345;43.964;25.340;2022-10-17T16:02:24;26.73;;;10.95;;
43835;SDS011;39345;43.964;25.340;2022-10-17T16:04:51;27.90;;;10.27;;
43835;SDS011;39345;43.964;25.340;2022-10-17T16:07:19;23.08;;;11.32;;
43835;SDS011;39345;43.964;25.340;2022-10-17T16:09:47;37.47;;;17.00;;
43835;SDS011;39345;43.964;25.340;2022-10-17T16:12:19;27.75;;;12.07;;
43835;SDS011;39345;43.964;25.340;2022-10-17T16:14:50;29.73;;;16.35;;
43835;SDS011;39345;43.964;25.340;2022-10-17T16:17:18;33.03;;;15.55;;
43835;SDS011;39345;43.964;25.340;2022-10-17T16:19:45;46.10;;;21.40;;
43835;SDS011;39345;43.964;25.340;2022-10-17T16:22:31;55.08;;;27.63;;
43835;SDS011;39345;43.964;25.340;2022-10-17T16:25:06;66.45;;;33.05;;
43835;SDS011;39345;43.964;25.340;2022-10-17T16:27:37;56.85;;;27.17;;
43835;SDS011;39345;43.964;25.340;2022-10-17T16:30:05;52.75;;;24.25;;
43835;SDS011;39345;43.964;25.340;2022-10-17T16:32:34;45.85;;;23.42;;
43835;SDS011;39345;43.964;25.340;2022-10-17T16:35:01;80.20;;;43.60;;
43835;SDS011;39345;43.964;25.340;2022-10-17T16:37:29;62.47;;;30.00;;